createdAt,value
2022-10-05T00:01:54.241Z,5.03
2022-10-05T00:04:25.612Z,4.93
2022-10-05T00:07:14.307Z,4.80
2022-10-05T00:09:47.019Z,5.00
2022-10-05T00:12:18.097Z,5.20
2022-10-05T00:14:52.212Z,5.50
2022-10-05T00:17:23.822Z,5.47
2022-10-05T00:19:57.734Z,5.33
2022-10-05T00:22:33.817Z,5.50
2022-10-05T00:25:12.985Z,5.53
2022-10-05T00:27:41.640Z,5.10
2022-10-05T00:30:18.558Z,5.80
2022-10-05T00:32:52.257Z,5.27
2022-10-05T00:35:23.516Z,5.60
2022-10-05T00:37:57.305Z,5.30
2022-10-05T00:40:52.454Z,5.90
2022-10-05T00:43:36.235Z,5.90
2022-10-05T00:46:12.406Z,6.07
2022-10-05T00:48:53.149Z,5.93
2022-10-05T00:51:29.906Z,5.63
2022-10-05T00:54:21.296Z,5.83
2022-10-05T00:57:09.057Z,5.60
2022-10-05T00:59:52.835Z,5.30
2022-10-05T01:02:32.980Z,5.10
2022-10-05T01:05:14.175Z,5.67
2022-10-05T01:07:51.075Z,5.03
2022-10-05T01:10:28.155Z,5.30
2022-10-05T01:13:05.192Z,5.73
2022-10-05T01:15:40.565Z,5.43
2022-10-05T01:18:15.488Z,5.37
2022-10-05T01:20:54.928Z,5.57
2022-10-05T01:24:00.179Z,4.90
2022-10-05T01:26:54.539Z,5.33
2022-10-05T01:29:29.877Z,5.87
2022-10-05T01:32:07.015Z,6.00
2022-10-05T01:34:43.978Z,5.23
2022-10-05T01:37:17.746Z,5.20
2022-10-05T01:39:58.780Z,5.70
2022-10-05T01:42:59.957Z,5.57
2022-10-05T01:45:46.559Z,5.60
2022-10-05T01:48:26.588Z,5.43
2022-10-05T01:51:04.940Z,5.90
2022-10-05T01:53:45.128Z,5.90
2022-10-05T01:56:22.504Z,5.63
2022-10-05T01:59:02.040Z,6.00
2022-10-05T02:01:37.399Z,5.37
2022-10-05T02:04:11.722Z,5.23
2022-10-05T02:06:47.451Z,5.37
2022-10-05T02:09:19.594Z,5.70
2022-10-05T02:11:55.096Z,5.80
2022-10-05T02:14:28.232Z,5.70
2022-10-05T02:17:03.468Z,5.47
2022-10-05T02:19:39.500Z,5.63
2022-10-05T02:22:11.586Z,5.70
2022-10-05T02:24:43.416Z,6.10
2022-10-05T02:27:15.031Z,5.67
2022-10-05T02:29:47.606Z,5.70
2022-10-05T02:32:26.687Z,6.27
2022-10-05T02:37:54.322Z,5.97
2022-10-05T02:40:36.103Z,5.13
2022-10-05T02:43:15.338Z,5.67
2022-10-05T02:45:54.822Z,5.80
2022-10-05T02:48:38.744Z,5.60
2022-10-05T02:51:16.442Z,5.80
2022-10-05T02:53:59.244Z,4.97
2022-10-05T02:59:23.427Z,5.60
2022-10-05T03:01:57.191Z,5.73
2022-10-05T03:04:39.989Z,5.90
2022-10-05T03:07:18.687Z,5.37
2022-10-05T03:10:01.035Z,5.03
2022-10-05T03:13:06.482Z,5.53
2022-10-05T03:16:10.687Z,5.50
2022-10-05T03:18:52.311Z,5.60
2022-10-05T03:21:35.811Z,5.87
2022-10-05T03:24:22.494Z,5.70
2022-10-05T03:27:04.485Z,6.00
2022-10-05T03:32:42.120Z,5.30
2022-10-05T03:35:19.674Z,6.00
2022-10-05T03:38:23.706Z,6.23
2022-10-05T03:41:05.555Z,5.97
2022-10-05T03:47:37.533Z,5.87
2022-10-05T03:50:40.265Z,5.23
2022-10-05T03:56:50.009Z,6.17
2022-10-05T03:59:22.861Z,6.17
2022-10-05T04:02:32.966Z,6.10
2022-10-05T04:05:31.141Z,6.37
2022-10-05T04:08:15.794Z,6.87
2022-10-05T04:11:05.187Z,6.80
2022-10-05T04:13:41.001Z,7.00
2022-10-05T04:16:15.532Z,6.53
2022-10-05T04:18:49.752Z,6.93
2022-10-05T04:21:25.124Z,7.40
2022-10-05T04:24:03.537Z,10.27
2022-10-05T04:26:46.174Z,8.17
2022-10-05T04:29:23.920Z,7.00
2022-10-05T04:32:40.604Z,6.50
2022-10-05T04:35:53.717Z,6.63
2022-10-05T04:39:12.676Z,7.77
2022-10-05T04:42:07.544Z,6.60
2022-10-05T04:45:02.981Z,7.30
2022-10-05T04:48:09.777Z,7.33
2022-10-05T04:54:26.905Z,7.13
2022-10-05T04:57:03.259Z,7.03
2022-10-05T05:00:19.574Z,7.23
2022-10-05T05:03:06.472Z,6.43
2022-10-05T05:06:16.358Z,7.10
2022-10-05T05:13:04.382Z,6.07
2022-10-05T05:19:24.238Z,6.77
2022-10-05T05:22:21.325Z,7.27
2022-10-05T05:25:24.103Z,7.27
2022-10-05T05:32:12.293Z,6.67
2022-10-05T05:42:14.155Z,6.70
2022-10-05T05:45:15.981Z,7.13
2022-10-05T05:48:05.787Z,7.17
2022-10-05T05:51:03.040Z,6.93
2022-10-05T05:53:45.922Z,7.33
2022-10-05T06:03:02.267Z,6.87
2022-10-05T06:05:35.181Z,7.17
2022-10-05T06:08:19.251Z,7.20
2022-10-05T06:13:52.619Z,9.37
2022-10-05T06:16:25.634Z,8.83
2022-10-05T06:18:58.597Z,8.93
2022-10-05T06:21:37.660Z,9.27
2022-10-05T06:24:15.473Z,9.40
2022-10-05T06:27:16.727Z,9.27
2022-10-05T06:29:58.064Z,8.00
2022-10-05T06:32:32.605Z,8.90
2022-10-05T06:35:13.587Z,7.90
2022-10-05T06:38:10.274Z,8.03
2022-10-05T06:44:26.751Z,7.93
2022-10-05T06:47:17.200Z,7.67
2022-10-05T06:52:47.061Z,7.60
2022-10-05T06:55:28.333Z,8.23
2022-10-05T06:58:28.542Z,8.20
2022-10-05T07:01:05.474Z,8.27
2022-10-05T07:03:46.680Z,7.73
2022-10-05T07:06:18.307Z,7.50
2022-10-05T07:09:15.676Z,8.50
2022-10-05T07:12:09.199Z,8.33
2022-10-05T07:15:09.621Z,8.87
2022-10-05T07:18:20.443Z,8.37
2022-10-05T07:21:01.877Z,8.80
2022-10-05T07:23:59.720Z,8.20
2022-10-05T07:27:02.479Z,7.97
2022-10-05T07:29:47.012Z,8.77
2022-10-05T07:32:29.078Z,8.43
2022-10-05T07:35:07.631Z,8.23
2022-10-05T07:38:12.084Z,9.73
2022-10-05T07:41:39.185Z,8.93
2022-10-05T07:44:26.388Z,9.03
2022-10-05T07:47:10.947Z,9.03
2022-10-05T07:49:51.384Z,8.33
2022-10-05T07:52:39.407Z,8.90
2022-10-05T08:02:44.576Z,8.80
2022-10-05T08:08:46.538Z,9.93
2022-10-05T08:11:21.148Z,8.90
2022-10-05T08:13:55.921Z,9.27
2022-10-05T08:16:29.399Z,10.70
2022-10-05T08:19:03.158Z,8.57
2022-10-05T08:21:43.893Z,9.50
2022-10-05T08:24:49.068Z,8.10
2022-10-05T08:27:27.219Z,8.13
2022-10-05T08:30:01.434Z,8.43
2022-10-05T08:32:37.126Z,8.33
2022-10-05T08:35:25.954Z,8.50
2022-10-05T08:38:03.117Z,7.47
2022-10-05T08:41:28.232Z,7.30
2022-10-05T08:44:25.606Z,6.97
2022-10-05T08:47:32.882Z,7.03
2022-10-05T08:50:25.518Z,6.80
2022-10-05T08:54:15.032Z,6.93
2022-10-05T09:03:24.470Z,6.67
2022-10-05T09:06:20.203Z,6.80
2022-10-05T09:13:54.629Z,6.43
2022-10-05T09:17:05.740Z,6.57
2022-10-05T09:19:50.649Z,6.13
2022-10-05T09:22:53.442Z,6.23
2022-10-05T09:25:55.467Z,6.33
2022-10-05T09:28:35.649Z,5.63
2022-10-05T09:32:02.377Z,6.53
2022-10-05T09:34:58.185Z,5.93
2022-10-05T09:38:22.212Z,6.20
2022-10-05T09:41:27.864Z,5.27
2022-10-05T09:44:53.657Z,5.47
2022-10-05T09:48:06.618Z,4.73
2022-10-05T09:51:23.958Z,4.60
2022-10-05T09:54:23.659Z,5.03
2022-10-05T10:00:58.752Z,4.90
2022-10-05T10:04:15.444Z,4.20
2022-10-05T10:14:22.226Z,3.50
2022-10-05T10:17:19.519Z,3.30
2022-10-05T10:20:53.349Z,4.20
2022-10-05T10:24:28.930Z,3.27
2022-10-05T10:27:30.716Z,3.43
2022-10-05T10:30:41.024Z,3.70
2022-10-05T10:33:28.485Z,3.37
2022-10-05T10:36:06.253Z,2.70
2022-10-05T10:38:55.112Z,2.90
2022-10-05T10:42:00.964Z,3.30
2022-10-05T10:48:52.976Z,2.23
2022-10-05T10:52:17.931Z,2.30
2022-10-05T10:55:49.908Z,2.77
2022-10-05T10:59:02.362Z,2.63
2022-10-05T11:01:38.583Z,2.43
2022-10-05T11:04:30.211Z,2.30
2022-10-05T11:07:55.860Z,3.17
2022-10-05T11:11:14.722Z,2.80
2022-10-05T11:14:16.285Z,2.90
2022-10-05T11:17:17.121Z,2.40
2022-10-05T11:20:09.888Z,3.10
2022-10-05T11:23:39.064Z,2.37
2022-10-05T11:27:18.693Z,2.40
2022-10-05T11:30:50.468Z,2.07
2022-10-05T11:33:50.967Z,2.30
2022-10-05T11:37:22.411Z,2.00
2022-10-05T11:51:10.147Z,2.00
2022-10-05T12:00:30.527Z,2.00
2022-10-05T12:03:34.115Z,2.27
2022-10-05T12:06:51.451Z,2.40
2022-10-05T12:10:19.170Z,2.57
2022-10-05T12:13:38.807Z,2.90
2022-10-05T12:16:19.796Z,3.00
2022-10-05T12:25:50.113Z,1.93
2022-10-05T12:28:28.823Z,2.57
2022-10-05T12:31:26.904Z,2.53
2022-10-05T12:34:04.007Z,2.60
2022-10-05T12:37:03.663Z,2.80
2022-10-05T12:39:48.236Z,3.20
2022-10-05T12:42:41.534Z,4.30
2022-10-05T12:49:26.065Z,2.40
2022-10-05T12:58:12.770Z,2.10
2022-10-05T13:00:48.548Z,2.40
2022-10-05T13:03:25.512Z,2.60
2022-10-05T13:06:03.475Z,2.40
2022-10-05T13:08:43.411Z,2.53
2022-10-05T13:11:26.033Z,2.47
2022-10-05T13:14:05.443Z,2.10
2022-10-05T13:16:55.142Z,2.50
2022-10-05T13:23:23.874Z,2.23
2022-10-05T13:26:01.863Z,2.37
2022-10-05T13:28:35.585Z,2.20
2022-10-05T13:31:13.798Z,3.00
2022-10-05T13:34:12.781Z,2.50
2022-10-05T13:40:57.369Z,3.20
2022-10-05T13:43:30.715Z,2.90
2022-10-05T13:46:11.129Z,2.60
2022-10-05T13:52:07.317Z,2.80
2022-10-05T13:54:44.111Z,3.43
2022-10-05T13:57:45.255Z,3.70
2022-10-05T14:00:27.432Z,3.03
2022-10-05T14:03:03.587Z,3.00
2022-10-05T14:05:38.179Z,2.50
2022-10-05T14:08:20.321Z,2.60
2022-10-05T14:10:49.773Z,2.50
2022-10-05T14:16:24.409Z,2.47
2022-10-05T14:19:22.606Z,2.40
2022-10-05T14:22:02.598Z,2.27
2022-10-05T14:32:00.300Z,3.43
2022-10-05T14:38:18.751Z,3.20
2022-10-05T14:40:56.743Z,2.20
2022-10-05T14:43:32.072Z,2.27
2022-10-05T14:46:25.329Z,2.60
2022-10-05T14:49:33.304Z,2.60
2022-10-05T14:52:43.327Z,2.70
2022-10-05T14:55:39.984Z,2.50
2022-10-05T14:58:25.035Z,2.67
2022-10-05T15:01:21.733Z,2.70
2022-10-05T15:04:12.622Z,2.33
2022-10-05T15:07:04.222Z,2.77
2022-10-05T15:17:00.138Z,3.30
2022-10-05T15:20:14.100Z,2.60
2022-10-05T15:23:34.727Z,2.50
2022-10-05T15:26:31.465Z,2.83
2022-10-05T15:29:06.547Z,2.47
2022-10-05T15:31:55.469Z,2.50
2022-10-05T15:34:40.169Z,3.90
2022-10-05T15:37:42.120Z,2.90
2022-10-05T15:40:27.972Z,2.77
2022-10-05T15:43:16.076Z,3.30
2022-10-05T15:46:06.039Z,3.30
2022-10-05T15:48:47.169Z,2.80
2022-10-05T15:51:51.944Z,2.60
2022-10-05T15:54:50.719Z,3.00
2022-10-05T16:01:08.341Z,2.30
2022-10-05T16:03:50.657Z,3.27
2022-10-05T16:10:21.026Z,3.47
2022-10-05T16:13:14.120Z,6.23
2022-10-05T16:19:58.276Z,3.37
2022-10-05T16:22:33.249Z,6.63
2022-10-05T16:25:11.322Z,3.07
2022-10-05T16:28:04.572Z,3.40
2022-10-05T16:30:47.955Z,2.90
2022-10-05T16:33:30.405Z,3.40
2022-10-05T16:36:12.868Z,5.87
2022-10-05T16:38:47.880Z,9.13
2022-10-05T16:47:39.889Z,5.27
2022-10-05T16:50:23.536Z,4.40
2022-10-05T16:53:03.435Z,3.13
2022-10-05T16:55:39.465Z,3.00
2022-10-05T16:58:20.247Z,3.43
2022-10-05T17:01:14.939Z,4.13
2022-10-05T17:04:03.861Z,3.77
2022-10-05T17:07:08.755Z,3.60
2022-10-05T17:13:40.818Z,3.60
2022-10-05T17:16:19.159Z,3.33
2022-10-05T17:19:20.420Z,3.20
2022-10-05T17:28:42.845Z,4.13
2022-10-05T17:37:54.549Z,2.90
2022-10-05T17:40:36.482Z,2.90
2022-10-05T17:43:25.303Z,3.07
2022-10-05T17:46:21.200Z,5.77
2022-10-05T17:49:33.070Z,4.97
2022-10-05T17:52:25.242Z,4.50
2022-10-05T17:55:30.997Z,4.17
2022-10-05T17:58:21.898Z,3.60
2022-10-05T18:01:14.769Z,3.13
2022-10-05T18:03:49.362Z,4.03
2022-10-05T18:06:40.309Z,3.63
2022-10-05T18:09:38.363Z,3.93
2022-10-05T18:12:46.998Z,3.40
2022-10-05T18:18:59.522Z,3.90
2022-10-05T18:22:06.105Z,4.70
2022-10-05T18:25:09.865Z,5.30
2022-10-05T18:28:38.696Z,5.77
2022-10-05T18:31:29.036Z,7.00
2022-10-05T18:34:21.686Z,6.30
2022-10-05T18:37:26.511Z,6.60
2022-10-05T18:40:13.486Z,9.20
2022-10-05T18:43:42.112Z,15.20
2022-10-05T18:46:37.401Z,4.30
2022-10-05T18:49:31.675Z,7.77
2022-10-05T18:52:22.283Z,4.80
2022-10-05T18:58:32.428Z,4.40
2022-10-05T19:05:23.595Z,6.17
2022-10-05T19:08:08.946Z,6.40
2022-10-05T19:10:45.614Z,5.97
2022-10-05T19:13:33.254Z,7.50
2022-10-05T19:16:21.690Z,6.70
2022-10-05T19:19:15.803Z,8.47
2022-10-05T19:22:18.601Z,7.13
2022-10-05T19:25:07.950Z,4.90
2022-10-05T19:27:50.747Z,5.60
2022-10-05T19:30:23.844Z,5.30
2022-10-05T19:33:15.494Z,4.70
2022-10-05T19:35:58.762Z,5.30
2022-10-05T19:45:44.356Z,4.37
2022-10-05T19:48:26.557Z,4.23
2022-10-05T19:50:57.507Z,4.53
2022-10-05T19:53:27.877Z,3.87
2022-10-05T19:55:58.172Z,4.53
2022-10-05T19:58:28.625Z,3.80
2022-10-05T20:00:59.537Z,4.47
2022-10-05T20:03:29.248Z,3.60
2022-10-05T20:05:59.300Z,3.40
2022-10-05T20:08:41.114Z,5.37
2022-10-05T20:11:14.242Z,3.70
2022-10-05T20:13:44.426Z,3.70
2022-10-05T20:20:00.216Z,3.30
2022-10-05T20:22:34.340Z,3.90
2022-10-05T20:25:05.821Z,3.30
2022-10-05T20:27:45.202Z,3.30
2022-10-05T20:30:15.458Z,3.17
2022-10-05T20:32:49.122Z,3.80
2022-10-05T20:35:18.321Z,3.63
2022-10-05T20:37:50.159Z,3.63
2022-10-05T20:40:19.969Z,3.53
2022-10-05T20:43:03.112Z,3.83
2022-10-05T20:49:20.387Z,3.63
2022-10-05T20:51:53.491Z,3.07
2022-10-05T20:54:21.763Z,3.20
2022-10-05T20:56:50.705Z,3.20
2022-10-05T20:59:20.902Z,3.90
2022-10-05T21:01:49.364Z,3.47
2022-10-05T21:04:19.303Z,3.27
2022-10-05T21:06:48.248Z,3.80
2022-10-05T21:09:22.388Z,2.90
2022-10-05T21:11:56.644Z,3.30
2022-10-05T21:14:41.792Z,3.10
2022-10-05T21:17:12.533Z,3.17
2022-10-05T21:19:44.192Z,3.50
2022-10-05T21:22:16.177Z,2.93
2022-10-05T21:24:45.882Z,2.80
2022-10-05T21:27:30.243Z,2.60
2022-10-05T21:30:04.335Z,2.70
2022-10-05T21:32:38.566Z,2.50
2022-10-05T21:35:20.272Z,2.90
2022-10-05T21:37:52.022Z,2.83
2022-10-05T21:40:20.524Z,2.80
2022-10-05T21:42:48.717Z,2.80
2022-10-05T21:45:18.791Z,2.90
2022-10-05T21:47:47.825Z,2.93
2022-10-05T21:50:18.965Z,2.80
2022-10-05T21:53:17.407Z,2.70
2022-10-05T21:56:10.397Z,2.80
2022-10-05T21:58:55.968Z,3.07
2022-10-05T22:01:36.187Z,2.97
2022-10-05T22:04:12.892Z,2.80
2022-10-05T22:06:42.182Z,3.23
2022-10-05T22:09:14.115Z,2.87
2022-10-05T22:11:49.527Z,2.90
2022-10-05T22:14:19.003Z,3.00
2022-10-05T22:17:13.696Z,2.97
2022-10-05T22:19:44.930Z,2.93
2022-10-05T22:22:15.366Z,3.30
2022-10-05T22:24:44.067Z,3.00
2022-10-05T22:27:12.681Z,3.17
2022-10-05T22:29:41.238Z,2.90
2022-10-05T22:32:10.910Z,3.10
2022-10-05T22:34:39.328Z,3.10
2022-10-05T22:37:08.127Z,3.00
2022-10-05T22:39:38.091Z,2.77
2022-10-05T22:42:07.093Z,2.33
2022-10-05T22:44:44.082Z,2.70
2022-10-05T22:47:15.111Z,2.43
2022-10-05T22:49:44.965Z,2.40
2022-10-05T22:52:13.207Z,2.77
2022-10-05T22:54:42.137Z,3.20
2022-10-05T22:57:10.345Z,2.50
2022-10-05T22:59:38.597Z,2.70
2022-10-05T23:02:07.062Z,2.80
2022-10-05T23:04:36.740Z,2.60
2022-10-05T23:07:05.006Z,2.83
2022-10-05T23:09:33.413Z,2.80
2022-10-05T23:12:01.717Z,2.83
2022-10-05T23:14:30.912Z,2.70
2022-10-05T23:16:59.799Z,2.90
2022-10-05T23:19:28.113Z,2.60
2022-10-05T23:21:57.740Z,2.83
2022-10-05T23:24:25.962Z,3.07
2022-10-05T23:26:54.196Z,2.60
2022-10-05T23:29:22.418Z,2.93
2022-10-05T23:31:50.676Z,3.03
2022-10-05T23:34:18.867Z,2.70
2022-10-05T23:36:47.070Z,2.43
2022-10-05T23:39:16.914Z,2.60
2022-10-05T23:41:45.100Z,3.13
2022-10-05T23:44:13.316Z,2.60
2022-10-05T23:46:41.620Z,3.50
2022-10-05T23:49:17.350Z,3.03
2022-10-05T23:51:45.722Z,3.00
2022-10-05T23:54:13.957Z,3.03
2022-10-05T23:56:43.864Z,3.03
2022-10-05T23:59:12.231Z,3.40
